createdAt,value
2022-11-15T00:00:27.963Z,71.45
2022-11-15T00:02:54.451Z,71.86
2022-11-15T00:05:21.078Z,72.59
2022-11-15T00:07:56.184Z,72.49
2022-11-15T00:10:22.881Z,72.87
2022-11-15T00:12:49.357Z,72.43
2022-11-15T00:15:15.864Z,72.59
2022-11-15T00:17:42.302Z,72.79
2022-11-15T00:20:09.006Z,72.57
2022-11-15T00:22:35.436Z,73.09
2022-11-15T00:25:01.898Z,73.03
2022-11-15T00:27:28.526Z,73.45
2022-11-15T00:29:54.988Z,73.49
2022-11-15T00:32:21.429Z,73.22
2022-11-15T00:34:47.874Z,73.54
2022-11-15T00:37:14.347Z,73.71
2022-11-15T00:39:40.916Z,73.60
2022-11-15T00:42:07.348Z,72.89
2022-11-15T00:44:33.773Z,73.49
2022-11-15T00:47:00.570Z,73.02
2022-11-15T00:49:27.116Z,73.13
2022-11-15T00:51:53.585Z,73.09
2022-11-15T00:54:19.989Z,72.70
2022-11-15T00:56:46.686Z,72.91
2022-11-15T00:59:13.131Z,73.29
2022-11-15T01:01:39.574Z,73.48
2022-11-15T01:04:06.055Z,73.83
2022-11-15T01:07:00.650Z,73.75
2022-11-15T01:09:27.129Z,74.00
2022-11-15T01:11:53.564Z,75.17
2022-11-15T01:14:25.729Z,75.15
2022-11-15T01:20:20.388Z,75.37
2022-11-15T01:22:47.423Z,74.83
2022-11-15T01:25:13.828Z,75.36
2022-11-15T01:27:40.281Z,75.22
2022-11-15T01:30:07.157Z,74.86
2022-11-15T01:32:33.571Z,74.45
2022-11-15T01:34:59.981Z,74.71
2022-11-15T01:37:26.443Z,75.44
2022-11-15T01:39:52.944Z,74.85
2022-11-15T01:42:19.437Z,75.58
2022-11-15T01:44:49.608Z,74.92
2022-11-15T01:47:19.144Z,74.98
2022-11-15T01:49:56.666Z,75.68
2022-11-15T01:52:23.461Z,75.42
2022-11-15T01:54:50.438Z,75.02
2022-11-15T01:57:16.887Z,75.37
2022-11-15T01:59:43.806Z,75.03
2022-11-15T02:02:10.254Z,75.05
2022-11-15T02:04:38.245Z,75.22
2022-11-15T02:07:04.708Z,75.87
2022-11-15T02:09:31.180Z,74.96
2022-11-15T02:11:57.646Z,75.24
2022-11-15T02:14:24.062Z,74.91
2022-11-15T02:17:00.985Z,75.12
2022-11-15T02:19:30.939Z,75.31
2022-11-15T02:21:57.320Z,75.41
2022-11-15T02:24:27.025Z,75.76
2022-11-15T02:27:02.924Z,75.71
2022-11-15T02:30:03.485Z,75.57
2022-11-15T02:32:33.525Z,75.76
2022-11-15T02:35:18.699Z,77.36
2022-11-15T02:37:48.211Z,77.27
2022-11-15T02:40:18.563Z,77.72
2022-11-15T02:43:08.319Z,77.37
2022-11-15T02:45:36.967Z,77.46
2022-11-15T02:48:03.451Z,77.18
2022-11-15T02:50:49.618Z,77.67
2022-11-15T02:53:16.108Z,76.95
2022-11-15T02:55:44.292Z,77.15
2022-11-15T02:58:10.744Z,77.56
2022-11-15T03:00:37.313Z,76.69
2022-11-15T03:03:06.859Z,78.86
2022-11-15T03:05:45.411Z,78.54
2022-11-15T03:08:16.305Z,78.27
2022-11-15T03:10:51.835Z,78.31
2022-11-15T03:13:27.971Z,78.57
2022-11-15T03:15:59.058Z,78.03
2022-11-15T03:18:35.269Z,78.25
2022-11-15T03:21:01.974Z,78.12
2022-11-15T03:23:28.593Z,78.10
2022-11-15T03:25:55.437Z,77.46
2022-11-15T03:28:23.770Z,78.39
2022-11-15T03:30:50.219Z,77.84
2022-11-15T03:33:16.658Z,78.06
2022-11-15T03:35:43.773Z,78.79
2022-11-15T03:38:22.576Z,78.06
2022-11-15T03:40:50.659Z,78.70
2022-11-15T03:43:21.390Z,78.35
2022-11-15T03:45:50.627Z,78.60
2022-11-15T03:48:21.570Z,78.47
2022-11-15T03:50:48.023Z,78.46
2022-11-15T03:53:14.518Z,79.04
2022-11-15T03:55:40.945Z,78.63
2022-11-15T03:58:07.491Z,78.26
2022-11-15T04:00:33.908Z,78.18
2022-11-15T04:03:00.334Z,78.15
2022-11-15T04:05:26.827Z,78.96
2022-11-15T04:07:53.767Z,79.33
2022-11-15T04:10:20.515Z,79.00
2022-11-15T04:12:48.616Z,79.33
2022-11-15T04:15:15.741Z,79.68
2022-11-15T04:17:45.177Z,79.57
2022-11-15T04:20:31.880Z,78.49
2022-11-15T04:23:17.592Z,78.88
2022-11-15T04:25:44.085Z,78.91
2022-11-15T04:28:10.745Z,79.43
2022-11-15T04:30:37.252Z,79.69
2022-11-15T04:33:03.761Z,79.06
2022-11-15T04:35:30.357Z,79.27
2022-11-15T04:37:57.159Z,78.74
2022-11-15T04:40:23.603Z,78.83
2022-11-15T04:42:50.067Z,78.97
2022-11-15T04:45:16.629Z,78.63
2022-11-15T04:47:46.431Z,78.99
2022-11-15T04:50:14.403Z,78.63
2022-11-15T04:52:41.786Z,78.98
2022-11-15T04:55:08.559Z,78.47
2022-11-15T04:57:35.073Z,79.04
2022-11-15T05:00:02.391Z,78.75
2022-11-15T05:02:48.798Z,79.09
2022-11-15T05:05:15.232Z,79.08
2022-11-15T05:07:41.675Z,78.60
2022-11-15T05:10:08.353Z,77.98
2022-11-15T05:12:34.757Z,78.19
2022-11-15T05:15:01.183Z,78.37
2022-11-15T05:17:27.642Z,79.01
2022-11-15T05:19:54.109Z,79.49
2022-11-15T05:22:20.542Z,78.87
2022-11-15T05:24:47.164Z,79.72
2022-11-15T05:27:13.566Z,79.32
2022-11-15T05:29:40.033Z,80.04
2022-11-15T05:32:06.608Z,79.76
2022-11-15T05:34:33.081Z,79.94
2022-11-15T05:36:59.499Z,80.33
2022-11-15T05:39:27.079Z,80.35
2022-11-15T05:41:54.594Z,80.29
2022-11-15T05:44:23.279Z,79.81
2022-11-15T05:46:49.902Z,78.74
2022-11-15T05:49:16.771Z,77.68
2022-11-15T05:51:43.197Z,77.58
2022-11-15T05:54:09.712Z,77.64
2022-11-15T05:56:36.116Z,76.80
2022-11-15T05:59:02.629Z,76.56
2022-11-15T06:01:29.343Z,76.74
2022-11-15T06:03:55.756Z,76.48
2022-11-15T06:06:22.221Z,77.09
2022-11-15T06:08:48.951Z,77.51
2022-11-15T06:11:15.361Z,77.58
2022-11-15T06:13:41.775Z,77.72
2022-11-15T06:16:08.243Z,77.33
2022-11-15T06:18:34.811Z,76.75
2022-11-15T06:21:01.315Z,76.54
2022-11-15T06:23:28.102Z,76.34
2022-11-15T06:25:54.541Z,76.58
2022-11-15T06:28:20.988Z,77.39
2022-11-15T06:30:52.013Z,77.23
2022-11-15T06:33:19.690Z,77.26
2022-11-15T06:35:46.098Z,78.11
2022-11-15T06:38:12.584Z,78.39
2022-11-15T06:40:39.196Z,78.79
2022-11-15T06:43:05.694Z,78.98
2022-11-15T06:45:32.185Z,78.89
2022-11-15T06:47:58.752Z,78.74
2022-11-15T06:50:25.334Z,77.98
2022-11-15T06:52:51.924Z,78.19
2022-11-15T06:55:18.351Z,77.79
2022-11-15T06:57:51.504Z,77.95
2022-11-15T07:00:18.383Z,77.70
2022-11-15T07:02:44.891Z,77.84
2022-11-15T07:05:11.594Z,77.45
2022-11-15T07:07:38.068Z,76.74
2022-11-15T07:10:04.733Z,76.89
2022-11-15T07:12:31.155Z,100.00
2022-11-15T07:14:57.583Z,100.00
2022-11-15T07:17:24.218Z,100.00
2022-11-15T07:19:50.666Z,100.00
2022-11-15T07:22:17.084Z,100.00
2022-11-15T07:24:43.530Z,100.00
2022-11-15T07:27:10.436Z,75.12
2022-11-15T07:29:40.964Z,75.00
2022-11-15T07:32:15.486Z,75.18
2022-11-15T07:34:41.899Z,75.36
2022-11-15T07:37:08.397Z,74.82
2022-11-15T07:39:34.867Z,74.71
2022-11-15T07:42:20.018Z,74.30
2022-11-15T07:44:46.448Z,74.23
2022-11-15T07:47:12.892Z,74.30
2022-11-15T07:49:39.315Z,74.59
2022-11-15T07:52:05.737Z,74.13
2022-11-15T07:54:32.471Z,74.12
2022-11-15T07:57:02.557Z,74.00
2022-11-15T07:59:33.502Z,74.20
2022-11-15T08:01:59.977Z,73.98
2022-11-15T08:04:26.575Z,73.81
2022-11-15T08:06:53.287Z,73.57
2022-11-15T08:09:19.754Z,73.66
2022-11-15T08:11:46.188Z,73.75
2022-11-15T08:14:12.651Z,73.31
2022-11-15T08:16:39.099Z,72.88
2022-11-15T08:19:05.480Z,73.41
2022-11-15T08:21:31.909Z,73.23
2022-11-15T08:23:58.533Z,73.04
2022-11-15T08:26:31.230Z,73.00
2022-11-15T08:28:57.717Z,72.27
2022-11-15T08:31:24.142Z,70.82
2022-11-15T08:33:50.673Z,70.54
2022-11-15T08:36:17.253Z,71.39
2022-11-15T08:38:43.702Z,70.94
2022-11-15T08:41:11.615Z,71.52
2022-11-15T08:43:38.059Z,71.05
2022-11-15T08:46:04.537Z,71.47
2022-11-15T08:48:31.308Z,70.99
2022-11-15T08:50:58.229Z,70.31
2022-11-15T08:53:24.684Z,69.36
2022-11-15T08:55:51.315Z,68.83
2022-11-15T08:58:17.774Z,68.34
2022-11-15T09:00:44.304Z,68.19
2022-11-15T09:03:10.811Z,68.49
2022-11-15T09:05:37.635Z,68.35
2022-11-15T09:08:19.057Z,68.25
2022-11-15T09:10:50.623Z,68.36
2022-11-15T09:13:17.238Z,68.25
2022-11-15T09:15:43.634Z,68.49
2022-11-15T09:18:10.057Z,68.24
2022-11-15T09:20:36.668Z,68.74
2022-11-15T09:23:03.390Z,68.66
2022-11-15T09:25:29.835Z,69.00
2022-11-15T09:27:56.446Z,69.00
2022-11-15T09:30:23.272Z,68.47
2022-11-15T09:32:49.713Z,68.42
2022-11-15T09:35:17.477Z,69.40
2022-11-15T09:37:43.961Z,69.75
2022-11-15T09:40:15.883Z,68.82
2022-11-15T09:42:57.707Z,69.43
2022-11-15T09:45:29.036Z,69.30
2022-11-15T09:47:55.405Z,68.50
2022-11-15T09:50:40.122Z,68.67
2022-11-15T09:53:09.532Z,68.13
2022-11-15T09:55:45.299Z,67.79
2022-11-15T09:58:18.126Z,67.82
2022-11-15T10:00:48.095Z,68.01
2022-11-15T10:03:16.151Z,67.69
2022-11-15T10:05:43.955Z,68.07
2022-11-15T10:08:28.856Z,68.10
2022-11-15T10:11:22.706Z,68.78
2022-11-15T10:13:45.930Z,68.44
2022-11-15T10:16:15.373Z,68.52
2022-11-15T10:18:48.036Z,69.10
2022-11-15T10:21:26.242Z,68.93
2022-11-15T10:23:52.693Z,68.96
2022-11-15T10:26:19.089Z,68.13
2022-11-15T10:28:45.653Z,67.90
2022-11-15T10:31:29.411Z,66.50
2022-11-15T10:34:14.687Z,66.21
2022-11-15T10:36:49.104Z,65.25
2022-11-15T10:39:16.803Z,63.01
2022-11-15T10:41:43.535Z,62.65
2022-11-15T10:44:26.391Z,62.49
2022-11-15T10:46:56.829Z,62.38
2022-11-15T10:49:25.290Z,61.86
2022-11-15T10:55:30.876Z,60.63
2022-11-15T10:58:01.229Z,59.68
2022-11-15T11:00:32.245Z,59.97
2022-11-15T11:03:00.365Z,60.71
2022-11-15T11:05:28.261Z,60.58
2022-11-15T11:07:56.837Z,58.94
2022-11-15T11:10:49.896Z,59.95
2022-11-15T11:13:16.382Z,59.67
2022-11-15T11:15:43.894Z,58.98
2022-11-15T11:18:16.428Z,58.93
2022-11-15T11:20:43.541Z,58.39
2022-11-15T11:23:29.138Z,58.64
2022-11-15T11:25:55.683Z,58.22
2022-11-15T11:28:48.206Z,58.17
2022-11-15T11:31:29.982Z,59.22
2022-11-15T11:34:15.448Z,57.95
2022-11-15T11:36:42.088Z,58.69
2022-11-15T11:39:26.982Z,60.19
2022-11-15T11:41:56.504Z,59.98
2022-11-15T11:44:22.921Z,59.96
2022-11-15T11:47:02.070Z,60.72
2022-11-15T11:49:31.548Z,60.47
2022-11-15T11:52:02.074Z,60.77
2022-11-15T11:57:56.453Z,61.36
2022-11-15T12:00:23.629Z,60.94
2022-11-15T12:03:02.571Z,60.64
2022-11-15T12:05:35.164Z,60.68
2022-11-15T12:08:04.591Z,61.03
2022-11-15T12:10:31.320Z,61.38
2022-11-15T12:13:05.581Z,61.00
2022-11-15T12:15:40.688Z,61.65
2022-11-15T12:18:08.387Z,61.59
2022-11-15T12:20:35.620Z,61.35
2022-11-15T12:23:04.798Z,61.18
2022-11-15T12:25:57.808Z,61.89
2022-11-15T12:28:58.634Z,61.94
2022-11-15T12:31:35.825Z,62.46
2022-11-15T12:34:20.587Z,62.83
2022-11-15T12:36:47.148Z,62.80
2022-11-15T12:39:14.189Z,62.89
2022-11-15T12:41:41.127Z,63.28
2022-11-15T12:44:14.476Z,63.07
2022-11-15T12:50:02.658Z,63.10
2022-11-15T12:52:31.024Z,63.26
2022-11-15T12:54:58.563Z,62.73
2022-11-15T12:57:25.693Z,62.75
2022-11-15T12:59:53.410Z,63.56
2022-11-15T13:02:24.298Z,63.19
2022-11-15T13:04:51.220Z,63.95
2022-11-15T13:10:40.366Z,63.56
2022-11-15T13:13:11.643Z,63.44
2022-11-15T13:15:44.561Z,62.82
2022-11-15T13:18:31.189Z,62.49
2022-11-15T13:21:02.573Z,63.64
2022-11-15T13:23:30.550Z,62.86
2022-11-15T13:26:09.250Z,63.24
2022-11-15T13:28:46.698Z,63.61
2022-11-15T13:31:22.855Z,63.41
2022-11-15T13:33:49.845Z,63.36
2022-11-15T13:36:16.542Z,63.18
2022-11-15T13:38:45.004Z,64.00
2022-11-15T13:41:15.097Z,63.99
2022-11-15T13:43:41.970Z,63.91
2022-11-15T13:46:11.017Z,63.59
2022-11-15T13:48:38.665Z,64.56
2022-11-15T13:51:10.265Z,64.11
2022-11-15T13:53:37.176Z,64.13
2022-11-15T13:56:04.644Z,63.68
2022-11-15T13:58:31.325Z,63.34
2022-11-15T14:01:04.652Z,64.21
2022-11-15T14:03:35.233Z,64.68
2022-11-15T14:06:06.453Z,64.52
2022-11-15T14:08:33.053Z,65.25
2022-11-15T14:11:09.098Z,64.59
2022-11-15T14:13:35.625Z,64.81
2022-11-15T14:16:14.432Z,64.93
2022-11-15T14:18:45.115Z,64.44
2022-11-15T14:21:11.613Z,64.92
2022-11-15T14:23:38.083Z,64.98
2022-11-15T14:26:11.253Z,65.40
2022-11-15T14:28:40.391Z,65.44
2022-11-15T14:31:08.404Z,65.96
2022-11-15T14:33:35.897Z,65.73
2022-11-15T14:36:06.744Z,65.38
2022-11-15T14:38:33.514Z,66.04
2022-11-15T14:41:00.317Z,66.22
2022-11-15T14:43:26.857Z,66.13
2022-11-15T14:45:53.319Z,65.99
2022-11-15T14:48:19.779Z,67.01
2022-11-15T14:50:46.317Z,66.81
2022-11-15T14:53:13.112Z,66.48
2022-11-15T14:55:39.621Z,66.67
2022-11-15T14:58:08.836Z,66.52
2022-11-15T15:00:35.870Z,66.03
2022-11-15T15:03:02.436Z,66.67
2022-11-15T15:05:36.006Z,65.83
2022-11-15T15:08:02.585Z,66.53
2022-11-15T15:10:42.549Z,66.35
2022-11-15T15:13:11.930Z,67.13
2022-11-15T15:15:38.743Z,67.10
2022-11-15T15:18:06.283Z,66.56
2022-11-15T15:20:33.097Z,66.69
2022-11-15T15:22:59.612Z,66.96
2022-11-15T15:25:30.107Z,67.24
2022-11-15T15:27:56.641Z,67.34
2022-11-15T15:30:23.498Z,67.53
2022-11-15T15:32:49.997Z,67.37
2022-11-15T15:35:16.781Z,68.24
2022-11-15T15:37:43.334Z,67.71
2022-11-15T15:40:15.014Z,68.18
2022-11-15T15:42:41.492Z,68.18
2022-11-15T15:45:08.731Z,67.46
2022-11-15T15:47:35.234Z,68.16
2022-11-15T15:50:01.898Z,68.02
2022-11-15T15:52:28.518Z,67.93
2022-11-15T15:54:55.001Z,68.40
2022-11-15T15:57:21.528Z,68.35
2022-11-15T15:59:47.966Z,68.86
2022-11-15T16:02:14.393Z,68.61
2022-11-15T16:04:40.982Z,69.70
2022-11-15T16:07:09.216Z,68.83
2022-11-15T16:09:54.464Z,69.10
2022-11-15T16:12:20.911Z,68.90
2022-11-15T16:14:47.402Z,68.85
2022-11-15T16:17:18.356Z,69.20
2022-11-15T16:19:44.785Z,69.06
2022-11-15T16:22:11.207Z,69.22
2022-11-15T16:24:37.881Z,68.83
2022-11-15T16:27:04.358Z,68.92
2022-11-15T16:29:30.994Z,69.26
2022-11-15T16:31:57.499Z,69.18
2022-11-15T16:34:25.788Z,69.17
2022-11-15T16:36:54.031Z,69.05
2022-11-15T16:39:21.840Z,69.78
2022-11-15T16:41:48.333Z,69.35
2022-11-15T16:44:14.902Z,69.69
2022-11-15T16:46:41.797Z,69.32
2022-11-15T16:49:14.918Z,68.95
2022-11-15T16:51:41.842Z,68.91
2022-11-15T16:54:08.280Z,69.13
2022-11-15T16:56:34.787Z,69.24
2022-11-15T16:59:01.427Z,69.59
2022-11-15T17:01:50.544Z,68.82
2022-11-15T17:04:20.261Z,69.34
2022-11-15T17:06:47.169Z,69.22
2022-11-15T17:09:14.929Z,69.13
2022-11-15T17:11:41.603Z,69.46
2022-11-15T17:14:08.367Z,69.37
2022-11-15T17:16:36.055Z,69.50
2022-11-15T17:19:02.526Z,70.16
2022-11-15T17:21:33.474Z,69.64
2022-11-15T17:24:00.571Z,69.69
2022-11-15T17:26:33.072Z,70.44
2022-11-15T17:29:01.691Z,70.27
2022-11-15T17:31:30.205Z,70.65
2022-11-15T17:33:56.703Z,70.04
2022-11-15T17:36:23.201Z,70.27
2022-11-15T17:38:56.538Z,70.60
2022-11-15T17:41:25.742Z,70.26
2022-11-15T17:43:52.230Z,69.45
2022-11-15T17:46:19.554Z,70.18
2022-11-15T17:48:46.299Z,70.39
2022-11-15T17:51:13.302Z,70.46
2022-11-15T17:53:40.673Z,70.93
2022-11-15T17:56:14.962Z,71.09
2022-11-15T17:58:41.514Z,70.50
2022-11-15T18:01:08.419Z,71.11
2022-11-15T18:03:35.823Z,71.10
2022-11-15T18:06:02.455Z,70.84
2022-11-15T18:08:28.997Z,71.28
2022-11-15T18:11:15.879Z,70.81
2022-11-15T18:13:43.712Z,71.68
2022-11-15T18:16:11.062Z,70.69
2022-11-15T18:18:37.556Z,71.20
2022-11-15T18:21:07.561Z,71.45
2022-11-15T18:23:34.395Z,70.88
2022-11-15T18:26:01.580Z,71.34
2022-11-15T18:28:35.748Z,70.82
2022-11-15T18:31:02.622Z,70.78
2022-11-15T18:33:29.309Z,70.88
2022-11-15T18:36:02.380Z,70.33
2022-11-15T18:38:30.885Z,70.68
2022-11-15T18:40:58.141Z,70.77
2022-11-15T18:43:24.864Z,70.71
2022-11-15T18:45:51.415Z,71.04
2022-11-15T18:48:17.876Z,70.82
2022-11-15T18:51:20.810Z,71.10
2022-11-15T18:53:47.363Z,70.45
2022-11-15T18:56:14.603Z,71.43
2022-11-15T18:58:42.203Z,70.71
2022-11-15T19:01:10.776Z,70.83
2022-11-15T19:03:38.370Z,70.89
2022-11-15T19:06:06.245Z,71.27
2022-11-15T19:08:36.164Z,71.28
2022-11-15T19:11:06.245Z,71.27
2022-11-15T19:13:32.949Z,71.56
2022-11-15T19:15:59.893Z,70.60
2022-11-15T19:18:26.398Z,71.53
2022-11-15T19:20:52.956Z,72.01
2022-11-15T19:23:19.590Z,71.49
2022-11-15T19:25:53.380Z,71.94
2022-11-15T19:28:19.792Z,71.74
2022-11-15T19:30:46.226Z,71.94
2022-11-15T19:33:12.661Z,71.25
2022-11-15T19:35:39.130Z,71.33
2022-11-15T19:38:05.615Z,71.31
2022-11-15T19:40:35.150Z,70.82
2022-11-15T19:43:01.648Z,71.26
2022-11-15T19:45:28.100Z,71.42
2022-11-15T19:47:54.632Z,71.91
2022-11-15T19:50:21.105Z,71.02
2022-11-15T19:52:47.578Z,71.84
2022-11-15T19:55:14.396Z,71.19
2022-11-15T19:57:40.887Z,71.68
2022-11-15T20:00:07.778Z,71.94
2022-11-15T20:02:34.316Z,71.36
2022-11-15T20:08:34.782Z,71.73
2022-11-15T20:11:01.376Z,71.59
2022-11-15T20:13:27.815Z,71.95
2022-11-15T20:15:54.479Z,71.65
2022-11-15T20:18:21.240Z,71.71
2022-11-15T20:20:49.917Z,71.29
2022-11-15T20:23:16.452Z,71.70
2022-11-15T20:25:46.639Z,71.31
2022-11-15T20:28:26.121Z,71.61
2022-11-15T20:30:53.454Z,71.69
2022-11-15T20:33:19.936Z,71.81
2022-11-15T20:35:46.690Z,71.71
2022-11-15T20:38:13.126Z,71.71
2022-11-15T20:40:39.935Z,71.65
2022-11-15T20:43:06.646Z,71.51
2022-11-15T20:45:33.095Z,71.41
2022-11-15T20:47:59.498Z,71.63
2022-11-15T20:50:42.207Z,71.22
2022-11-15T20:53:09.746Z,72.34
2022-11-15T20:55:40.977Z,71.92
2022-11-15T20:58:07.748Z,71.62
2022-11-15T21:00:34.230Z,71.73
2022-11-15T21:03:00.698Z,72.01
2022-11-15T21:05:27.118Z,72.35
2022-11-15T21:07:53.477Z,71.75
2022-11-15T21:10:38.488Z,72.32
2022-11-15T21:13:04.903Z,72.12
2022-11-15T21:15:33.056Z,72.24
2022-11-15T21:17:59.562Z,71.52
2022-11-15T21:20:26.163Z,72.39
2022-11-15T21:22:52.614Z,71.96
2022-11-15T21:25:19.091Z,72.07
2022-11-15T21:27:45.518Z,72.40
2022-11-15T21:30:12.686Z,72.29
2022-11-15T21:32:39.262Z,72.10
2022-11-15T21:35:06.404Z,72.54
2022-11-15T21:37:41.143Z,71.79
2022-11-15T21:40:08.115Z,72.37
2022-11-15T21:42:34.534Z,71.90
2022-11-15T21:45:01.007Z,71.14
2022-11-15T21:47:27.483Z,71.37
2022-11-15T21:49:53.925Z,70.65
2022-11-15T21:52:20.358Z,71.82
2022-11-15T21:54:46.862Z,71.06
2022-11-15T21:57:13.304Z,71.52
2022-11-15T21:59:59.751Z,71.88
2022-11-15T22:02:26.270Z,72.33
2022-11-15T22:04:52.689Z,71.37
2022-11-15T22:07:19.282Z,71.58
2022-11-15T22:09:45.724Z,72.13
2022-11-15T22:12:12.161Z,71.98
2022-11-15T22:14:38.738Z,72.00
2022-11-15T22:17:05.206Z,71.67
2022-11-15T22:19:31.798Z,71.74
2022-11-15T22:21:58.480Z,72.57
2022-11-15T22:24:25.009Z,72.07
2022-11-15T22:26:51.455Z,72.29
2022-11-15T22:29:17.893Z,72.22
2022-11-15T22:31:44.373Z,71.94
2022-11-15T22:34:11.001Z,72.49
2022-11-15T22:36:58.338Z,71.86
2022-11-15T22:39:24.991Z,71.80
2022-11-15T22:41:51.523Z,71.95
2022-11-15T22:44:18.285Z,72.67
2022-11-15T22:46:44.725Z,72.05
2022-11-15T22:49:13.350Z,71.99
2022-11-15T22:51:40.588Z,72.11
2022-11-15T22:54:07.707Z,71.82
2022-11-15T22:56:34.172Z,71.78
2022-11-15T22:59:00.630Z,72.10
2022-11-15T23:01:27.080Z,71.88
2022-11-15T23:03:53.720Z,72.82
2022-11-15T23:06:20.327Z,72.07
2022-11-15T23:08:47.024Z,72.50
2022-11-15T23:11:32.093Z,72.07
2022-11-15T23:13:58.612Z,72.82
2022-11-15T23:16:37.285Z,72.33
2022-11-15T23:19:07.490Z,72.36
2022-11-15T23:21:53.027Z,72.11
2022-11-15T23:24:19.576Z,72.30
2022-11-15T23:26:46.569Z,72.33
2022-11-15T23:29:13.862Z,72.33
2022-11-15T23:32:02.124Z,72.27
2022-11-15T23:34:40.468Z,72.60
2022-11-15T23:37:07.055Z,72.74
2022-11-15T23:39:33.566Z,73.38
2022-11-15T23:42:02.086Z,73.35
2022-11-15T23:44:32.530Z,72.58
2022-11-15T23:47:03.395Z,73.05
2022-11-15T23:49:29.853Z,72.75
2022-11-15T23:51:56.310Z,73.32
2022-11-15T23:54:22.775Z,73.14
2022-11-15T23:56:49.229Z,73.38
2022-11-15T23:59:15.863Z,73.40
